Time,TemperatureF,DewpointF,PressureIn,WindDirection,WindDirectionDegrees,WindSpeedMPH,WindSpeedGustMPH,Humidity,HourlyPrecipIn,Conditions,Clouds,dailyrainin,SoftwareType,DateUTC
2013-02-22 00:00:00,22.6,18.2,30.32,WNW,300,0.0,2.0,83,0.00,,,0.00,Wunderground v.1.15,2013-02-22 05:00:00,
2013-02-22 00:05:00,22.6,18.2,30.32,WNW,300,0.0,2.0,83,0.00,,,0.00,Wunderground v.1.15,2013-02-22 05:05:00,
2013-02-22 00:10:00,22.7,18.0,30.31,WNW,300,0.0,0.0,82,0.00,,,0.00,Wunderground v.1.15,2013-02-22 05:10:00,
2013-02-22 00:15:00,23.1,18.1,30.31,WNW,300,3.0,6.0,81,0.00,,,0.00,Wunderground v.1.15,2013-02-22 05:15:00,
2013-02-22 00:20:00,23.6,18.3,30.31,WNW,300,1.0,2.0,80,0.00,,,0.00,Wunderground v.1.15,2013-02-22 05:20:00,
2013-02-22 00:25:00,23.9,18.6,30.31,WNW,300,0.0,3.0,80,0.00,,,0.00,Wunderground v.1.15,2013-02-22 05:25:00,
2013-02-22 00:30:00,24.2,18.3,30.32,WNW,300,0.0,0.0,78,0.00,,,0.00,Wunderground v.1.15,2013-02-22 05:30:00,
2013-02-22 00:35:00,24.4,18.2,30.33,WNW,300,0.0,3.0,77,0.00,,,0.00,Wunderground v.1.15,2013-02-22 05:35:00,
2013-02-22 00:40:00,24.7,18.5,30.33,WNW,300,0.0,0.0,77,0.00,,,0.00,Wunderground v.1.15,2013-02-22 05:40:00,
2013-02-22 00:45:00,24.8,18.6,30.33,WNW,300,0.0,2.0,77,0.00,,,0.00,Wunderground v.1.15,2013-02-22 05:45:00,
2013-02-22 00:50:00,25.1,18.6,30.33,WNW,300,0.0,1.0,76,0.00,,,0.00,Wunderground v.1.15,2013-02-22 05:50:00,
2013-02-22 00:55:00,25.2,19.0,30.34,WNW,300,0.0,1.0,77,0.00,,,0.00,Wunderground v.1.15,2013-02-22 05:55:00,
2013-02-22 01:00:00,25.2,18.7,30.34,WNW,300,0.0,0.0,76,0.00,,,0.00,Wunderground v.1.15,2013-02-22 06:00:00,
2013-02-22 01:05:00,25.3,19.1,30.33,WNW,300,0.0,2.0,77,0.00,,,0.00,Wunderground v.1.15,2013-02-22 06:05:00,
2013-02-22 01:10:00,25.2,19.3,30.33,WNW,300,0.0,0.0,78,0.00,,,0.00,Wunderground v.1.15,2013-02-22 06:10:00,
2013-02-22 01:15:00,25.0,19.1,30.32,WNW,300,1.0,2.0,78,0.00,,,0.00,Wunderground v.1.15,2013-02-22 06:15:00,
2013-02-22 01:20:00,24.9,18.7,30.31,WNW,300,0.0,1.0,77,0.00,,,0.00,Wunderground v.1.15,2013-02-22 06:20:00,
2013-02-22 01:25:00,24.9,19.0,30.31,WNW,300,1.0,3.0,78,0.00,,,0.00,Wunderground v.1.15,2013-02-22 06:25:00,
2013-02-22 01:30:00,24.9,18.7,30.31,WNW,300,2.0,3.0,77,0.00,,,0.00,Wunderground v.1.15,2013-02-22 06:30:00,
2013-02-22 01:35:00,25.0,18.8,30.31,WNW,300,1.0,3.0,77,0.00,,,0.00,Wunderground v.1.15,2013-02-22 06:35:00,
2013-02-22 01:40:00,25.0,18.8,30.31,WNW,300,0.0,1.0,77,0.00,,,0.00,Wunderground v.1.15,2013-02-22 06:40:00,
2013-02-22 01:45:00,24.9,18.7,30.31,WNW,300,0.0,2.0,77,0.00,,,0.00,Wunderground v.1.15,2013-02-22 06:45:00,
2013-02-22 01:50:00,25.0,19.1,30.31,WNW,300,0.0,1.0,78,0.00,,,0.00,Wunderground v.1.15,2013-02-22 06:50:00,
2013-02-22 01:55:00,25.2,18.7,30.32,WNW,300,2.0,4.0,76,0.00,,,0.00,Wunderground v.1.15,2013-02-22 06:55:00,
2013-02-22 02:00:00,25.3,18.8,30.32,WNW,300,1.0,2.0,76,0.00,,,0.00,Wunderground v.1.15,2013-02-22 07:00:00,
2013-02-22 02:05:00,25.4,18.9,30.32,WNW,300,0.0,2.0,76,0.00,,,0.00,Wunderground v.1.15,2013-02-22 07:05:00,
2013-02-22 02:10:00,25.4,18.9,30.33,WNW,300,0.0,0.0,76,0.00,,,0.00,Wunderground v.1.15,2013-02-22 07:10:00,
2013-02-22 02:15:00,25.4,18.6,30.33,WNW,300,3.0,4.0,75,0.00,,,0.00,Wunderground v.1.15,2013-02-22 07:15:00,
2013-02-22 02:20:00,25.6,18.8,30.34,WNW,300,0.0,1.0,75,0.00,,,0.00,Wunderground v.1.15,2013-02-22 07:20:00,
2013-02-22 02:25:00,25.6,19.1,30.35,WNW,300,0.0,1.0,76,0.00,,,0.00,Wunderground v.1.15,2013-02-22 07:25:00,
2013-02-22 02:30:00,25.6,19.4,30.35,WNW,300,0.0,0.0,77,0.00,,,0.00,Wunderground v.1.15,2013-02-22 07:30:00,
2013-02-22 02:35:00,25.5,19.3,30.35,WNW,300,2.0,2.0,77,0.00,,,0.00,Wunderground v.1.15,2013-02-22 07:35:00,
2013-02-22 02:40:00,25.4,19.2,30.35,WNW,300,0.0,1.0,77,0.00,,,0.00,Wunderground v.1.15,2013-02-22 07:40:00,
2013-02-22 02:45:00,25.3,19.1,30.35,WNW,300,1.0,1.0,77,0.00,,,0.00,Wunderground v.1.15,2013-02-22 07:45:00,
2013-02-22 02:50:00,25.3,19.4,30.35,WNW,300,0.0,0.0,78,0.00,,,0.00,Wunderground v.1.15,2013-02-22 07:50:00,
2013-02-22 02:55:00,25.3,19.1,30.35,WNW,300,0.0,0.0,77,0.00,,,0.00,Wunderground v.1.15,2013-02-22 07:55:00,
2013-02-22 03:00:00,25.3,19.1,30.35,WNW,300,0.0,0.0,77,0.00,,,0.00,Wunderground v.1.15,2013-02-22 08:00:00,
2013-02-22 03:05:00,25.2,19.0,30.35,WNW,300,0.0,0.0,77,0.00,,,0.00,Wunderground v.1.15,2013-02-22 08:05:00,
2013-02-22 03:10:00,25.2,19.3,30.36,WNW,300,0.0,0.0,78,0.00,,,0.00,Wunderground v.1.15,2013-02-22 08:10:00,
2013-02-22 03:15:00,25.2,19.0,30.36,WNW,300,0.0,1.0,77,0.00,,,0.00,Wunderground v.1.15,2013-02-22 08:15:00,
2013-02-22 03:20:00,25.2,19.3,30.36,WNW,300,0.0,0.0,78,0.00,,,0.00,Wunderground v.1.15,2013-02-22 08:20:00,
2013-02-22 03:25:00,25.1,19.2,30.36,WNW,300,0.0,0.0,78,0.00,,,0.00,Wunderground v.1.15,2013-02-22 08:25:00,
2013-02-22 03:30:00,25.1,19.5,30.37,WNW,300,0.0,0.0,79,0.00,,,0.00,Wunderground v.1.15,2013-02-22 08:30:00,
2013-02-22 03:35:00,25.0,19.4,30.37,WNW,300,0.0,0.0,79,0.00,,,0.00,Wunderground v.1.15,2013-02-22 08:35:00,
2013-02-22 03:40:00,24.9,19.6,30.38,WNW,300,0.0,0.0,80,0.00,,,0.00,Wunderground v.1.15,2013-02-22 08:40:00,
2013-02-22 03:45:00,24.8,19.2,30.38,WNW,300,0.0,0.0,79,0.00,,,0.00,Wunderground v.1.15,2013-02-22 08:45:00,
2013-02-22 03:50:00,24.8,19.5,30.39,WNW,300,0.0,0.0,80,0.00,,,0.00,Wunderground v.1.15,2013-02-22 08:50:00,
2013-02-22 03:55:00,24.7,19.4,30.39,WNW,300,0.0,0.0,80,0.00,,,0.00,Wunderground v.1.15,2013-02-22 08:55:00,
2013-02-22 04:00:00,24.7,19.7,30.38,WNW,300,0.0,1.0,81,0.00,,,0.00,Wunderground v.1.15,2013-02-22 09:00:00,
2013-02-22 04:05:00,24.6,19.3,30.38,WNW,300,0.0,1.0,80,0.00,,,0.00,Wunderground v.1.15,2013-02-22 09:05:00,
2013-02-22 04:10:00,24.7,19.7,30.37,WNW,300,0.0,0.0,81,0.00,,,0.00,Wunderground v.1.15,2013-02-22 09:10:00,
2013-02-22 04:15:00,24.7,20.0,30.36,WNW,300,0.0,0.0,82,0.00,,,0.00,Wunderground v.1.15,2013-02-22 09:15:00,
2013-02-22 04:20:00,24.7,19.7,30.37,WNW,300,0.0,0.0,81,0.00,,,0.00,Wunderground v.1.15,2013-02-22 09:20:00,
2013-02-22 04:25:00,24.7,19.7,30.38,WNW,300,0.0,0.0,81,0.00,,,0.00,Wunderground v.1.15,2013-02-22 09:25:00,
2013-02-22 04:30:00,24.6,19.6,30.39,WNW,300,0.0,0.0,81,0.00,,,0.00,Wunderground v.1.15,2013-02-22 09:30:00,
2013-02-22 04:35:00,24.6,19.6,30.39,WNW,300,0.0,0.0,81,0.00,,,0.00,Wunderground v.1.15,2013-02-22 09:35:00,
2013-02-22 04:40:00,24.6,19.9,30.38,WNW,300,0.0,1.0,82,0.00,,,0.00,Wunderground v.1.15,2013-02-22 09:40:00,
2013-02-22 04:45:00,24.6,19.9,30.36,WNW,300,0.0,1.0,82,0.00,,,0.00,Wunderground v.1.15,2013-02-22 09:45:00,
2013-02-22 04:50:00,24.6,19.9,30.36,WNW,300,0.0,0.0,82,0.00,,,0.00,Wunderground v.1.15,2013-02-22 09:50:00,
2013-02-22 04:55:00,24.6,19.9,30.35,WNW,300,0.0,0.0,82,0.00,,,0.00,Wunderground v.1.15,2013-02-22 09:55:00,
2013-02-22 05:00:00,24.6,19.9,30.36,WNW,300,0.0,0.0,82,0.00,,,0.00,Wunderground v.1.15,2013-02-22 10:00:00,
2013-02-22 05:05:00,24.6,19.9,30.35,WNW,300,0.0,0.0,82,0.00,,,0.00,Wunderground v.1.15,2013-02-22 10:05:00,
2013-02-22 05:10:00,24.7,20.0,30.35,WNW,300,0.0,0.0,82,0.00,,,0.00,Wunderground v.1.15,2013-02-22 10:10:00,
2013-02-22 05:15:00,24.7,20.0,30.35,WNW,300,0.0,1.0,82,0.00,,,0.00,Wunderground v.1.15,2013-02-22 10:15:00,
2013-02-22 05:20:00,24.7,20.0,30.36,WNW,300,0.0,0.0,82,0.00,,,0.00,Wunderground v.1.15,2013-02-22 10:20:00,
2013-02-22 05:25:00,24.9,20.2,30.37,WNW,300,0.0,2.0,82,0.00,,,0.00,Wunderground v.1.15,2013-02-22 10:25:00,
2013-02-22 05:30:00,25.1,19.8,30.36,WNW,300,0.0,0.0,80,0.00,,,0.00,Wunderground v.1.15,2013-02-22 10:30:00,
2013-02-22 05:35:00,25.2,19.6,30.36,WNW,300,0.0,1.0,79,0.00,,,0.00,Wunderground v.1.15,2013-02-22 10:35:00,
2013-02-22 05:40:00,25.3,19.7,30.37,WNW,300,0.0,0.0,79,0.00,,,0.00,Wunderground v.1.15,2013-02-22 10:40:00,
2013-02-22 05:45:00,25.4,19.5,30.35,WNW,300,0.0,1.0,78,0.00,,,0.00,Wunderground v.1.15,2013-02-22 10:45:00,
2013-02-22 05:50:00,25.7,19.8,30.35,WNW,301,2.0,3.0,78,0.00,,,0.00,Wunderground v.1.15,2013-02-22 10:50:00,
2013-02-22 05:55:00,26.1,19.9,30.35,WNW,302,2.0,5.0,77,0.00,,,0.00,Wunderground v.1.15,2013-02-22 10:55:00,
2013-02-22 06:00:00,26.3,20.1,30.35,WNW,302,2.0,2.0,77,0.00,,,0.00,Wunderground v.1.15,2013-02-22 11:00:00,
2013-02-22 06:05:00,26.3,20.1,30.36,WNW,302,1.0,2.0,77,0.00,,,0.00,Wunderground v.1.15,2013-02-22 11:05:00,
2013-02-22 06:10:00,26.4,20.2,30.36,WNW,302,0.0,0.0,77,0.00,,,0.00,Wunderground v.1.15,2013-02-22 11:10:00,
2013-02-22 06:15:00,26.5,20.0,30.36,WNW,302,0.0,3.0,76,0.00,,,0.00,Wunderground v.1.15,2013-02-22 11:15:00,
2013-02-22 06:20:00,26.4,20.2,30.36,WNW,302,0.0,1.0,77,0.00,,,0.00,Wunderground v.1.15,2013-02-22 11:20:00,
2013-02-22 06:25:00,26.4,20.2,30.35,WNW,302,1.0,2.0,77,0.00,,,0.00,Wunderground v.1.15,2013-02-22 11:25:00,
2013-02-22 06:30:00,26.5,20.3,30.35,WNW,302,0.0,0.0,77,0.00,,,0.00,Wunderground v.1.15,2013-02-22 11:30:00,
2013-02-22 06:35:00,26.5,20.3,30.35,WNW,302,2.0,2.0,77,0.00,,,0.00,Wunderground v.1.15,2013-02-22 11:35:00,
2013-02-22 06:40:00,26.4,20.2,30.36,WNW,302,0.0,1.0,77,0.00,,,0.00,Wunderground v.1.15,2013-02-22 11:40:00,
2013-02-22 06:45:00,26.4,20.5,30.37,WNW,302,0.0,1.0,78,0.00,,,0.00,Wunderground v.1.15,2013-02-22 11:45:00,
2013-02-22 06:50:00,26.3,20.4,30.36,WNW,302,0.0,0.0,78,0.00,,,0.00,Wunderground v.1.15,2013-02-22 11:50:00,
2013-02-22 06:55:00,26.3,20.4,30.37,WNW,302,0.0,0.0,78,0.00,,,0.00,Wunderground v.1.15,2013-02-22 11:55:00,
2013-02-22 07:00:00,26.3,20.4,30.37,WNW,302,0.0,0.0,78,0.00,,,0.00,Wunderground v.1.15,2013-02-22 12:00:00,
2013-02-22 07:05:00,26.3,20.4,30.37,WNW,302,0.0,0.0,78,0.00,,,0.00,Wunderground v.1.15,2013-02-22 12:05:00,
2013-02-22 07:10:00,26.3,20.4,30.38,WNW,302,1.0,1.0,78,0.00,,,0.00,Wunderground v.1.15,2013-02-22 12:10:00,
2013-02-22 07:15:00,26.4,20.5,30.38,WNW,302,0.0,1.0,78,0.00,,,0.00,Wunderground v.1.15,2013-02-22 12:15:00,
2013-02-22 07:20:00,26.4,20.5,30.38,WNW,302,1.0,1.0,78,0.00,,,0.00,Wunderground v.1.15,2013-02-22 12:20:00,
2013-02-22 07:25:00,26.5,20.6,30.38,WNW,302,0.0,2.0,78,0.00,,,0.00,Wunderground v.1.15,2013-02-22 12:25:00,
2013-02-22 07:30:00,26.7,20.8,30.38,WNW,302,0.0,0.0,78,0.00,,,0.00,Wunderground v.1.15,2013-02-22 12:30:00,
2013-02-22 07:35:00,26.8,20.9,30.38,WNW,302,3.0,3.0,78,0.00,,,0.00,Wunderground v.1.15,2013-02-22 12:35:00,
2013-02-22 07:40:00,27.1,20.5,30.38,NW,321,0.0,1.0,76,0.00,,,0.00,Wunderground v.1.15,2013-02-22 12:40:00,
2013-02-22 07:45:00,27.4,20.5,30.38,NW,322,0.0,5.0,75,0.00,,,0.00,Wunderground v.1.15,2013-02-22 12:45:00,
2013-02-22 07:50:00,27.7,20.8,30.37,NW,321,2.0,4.0,75,0.00,,,0.00,Wunderground v.1.15,2013-02-22 12:50:00,
2013-02-22 07:55:00,27.8,20.3,30.36,NNE,31,3.0,9.0,73,0.00,,,0.00,Wunderground v.1.15,2013-02-22 12:55:00,
2013-02-22 08:00:00,28.0,20.5,30.36,NE,36,3.0,4.0,73,0.00,,,0.00,Wunderground v.1.15,2013-02-22 13:00:00,
2013-02-22 08:05:00,28.1,20.6,30.36,NE,49,6.0,12.0,73,0.00,,,0.00,Wunderground v.1.15,2013-02-22 13:05:00,
2013-02-22 08:10:00,28.1,20.6,30.36,ENE,66,2.0,4.0,73,0.00,,,0.00,Wunderground v.1.15,2013-02-22 13:10:00,
2013-02-22 08:15:00,28.2,20.7,30.36,ENE,74,4.0,10.0,73,0.00,,,0.00,Wunderground v.1.15,2013-02-22 13:15:00,
2013-02-22 08:20:00,28.2,20.3,30.36,East,86,2.0,10.0,72,0.00,,,0.00,Wunderground v.1.15,2013-02-22 13:20:00,
2013-02-22 08:25:00,28.2,20.3,30.35,East,96,3.0,12.0,72,0.00,,,0.00,Wunderground v.1.15,2013-02-22 13:25:00,
2013-02-22 08:30:00,28.2,20.3,30.35,NE,55,2.0,13.0,72,0.00,,,0.00,Wunderground v.1.15,2013-02-22 13:30:00,
2013-02-22 08:35:00,28.1,20.2,30.35,East,101,6.0,13.0,72,0.00,,,0.00,Wunderground v.1.15,2013-02-22 13:35:00,
2013-02-22 08:40:00,27.9,20.0,30.34,NE,34,15.0,19.0,72,0.00,,,0.00,Wunderground v.1.15,2013-02-22 13:40:00,
2013-02-22 08:45:00,27.9,20.0,30.34,East,87,10.0,19.0,72,0.00,,,0.00,Wunderground v.1.15,2013-02-22 13:45:00,
2013-02-22 08:50:00,27.8,19.9,30.34,East,96,6.0,13.0,72,0.00,,,0.00,Wunderground v.1.15,2013-02-22 13:50:00,
2013-02-22 08:55:00,27.7,19.8,30.34,East,90,6.0,13.0,72,0.00,,,0.00,Wunderground v.1.15,2013-02-22 13:55:00,
2013-02-22 09:00:00,27.6,20.1,30.33,East,83,3.0,8.0,73,0.00,,,0.00,Wunderground v.1.15,2013-02-22 14:00:00,
2013-02-22 09:05:00,27.6,20.1,30.32,East,84,4.0,19.0,73,0.00,,,0.00,Wunderground v.1.15,2013-02-22 14:05:00,
2013-02-22 09:10:00,27.6,20.1,30.32,East,79,7.0,11.0,73,0.00,,,0.00,Wunderground v.1.15,2013-02-22 14:10:00,
2013-02-22 09:15:00,27.7,20.2,30.31,East,90,9.0,16.0,73,0.00,,,0.00,Wunderground v.1.15,2013-02-22 14:15:00,
2013-02-22 09:20:00,27.6,20.1,30.31,ENE,76,13.0,13.0,73,0.00,,,0.00,Wunderground v.1.15,2013-02-22 14:20:00,
2013-02-22 09:25:00,27.7,20.5,30.32,NNE,25,2.0,16.0,74,0.00,,,0.00,Wunderground v.1.15,2013-02-22 14:25:00,
2013-02-22 09:30:00,27.9,20.4,30.32,East,96,6.0,11.0,73,0.00,,,0.00,Wunderground v.1.15,2013-02-22 14:30:00,
2013-02-22 09:35:00,27.9,20.4,30.32,ESE,113,3.0,12.0,73,0.00,,,0.00,Wunderground v.1.15,2013-02-22 14:35:00,
2013-02-22 09:40:00,28.0,20.5,30.32,ENE,71,3.0,6.0,73,0.00,,,0.00,Wunderground v.1.15,2013-02-22 14:40:00,
2013-02-22 09:45:00,27.9,20.4,30.32,ENE,74,9.0,13.0,73,0.00,,,0.00,Wunderground v.1.15,2013-02-22 14:45:00,
2013-02-22 09:50:00,27.9,20.7,30.32,NE,55,7.0,13.0,74,0.00,,,0.00,Wunderground v.1.15,2013-02-22 14:50:00,
2013-02-22 09:55:00,27.9,20.7,30.32,East,88,7.0,15.0,74,0.00,,,0.00,Wunderground v.1.15,2013-02-22 14:55:00,
2013-02-22 10:00:00,28.0,20.8,30.32,ESE,102,4.0,7.0,74,0.00,,,0.00,Wunderground v.1.15,2013-02-22 15:00:00,
2013-02-22 10:05:00,28.0,20.8,30.31,East,82,4.0,16.0,74,0.00,,,0.00,Wunderground v.1.15,2013-02-22 15:05:00,
2013-02-22 10:10:00,28.0,20.8,30.31,ENE,61,5.0,6.0,74,0.00,,,0.00,Wunderground v.1.15,2013-02-22 15:10:00,
2013-02-22 10:15:00,28.1,20.9,30.31,ESE,105,5.0,16.0,74,0.00,,,0.00,Wunderground v.1.15,2013-02-22 15:15:00,
2013-02-22 10:20:00,28.3,21.1,30.31,ESE,107,4.0,6.0,74,0.00,,,0.00,Wunderground v.1.15,2013-02-22 15:20:00,
2013-02-22 10:25:00,28.3,21.1,30.31,ENE,76,2.0,14.0,74,0.00,,,0.00,Wunderground v.1.15,2013-02-22 15:25:00,
2013-02-22 10:30:00,28.3,21.1,30.31,SE,143,7.0,10.0,74,0.00,,,0.00,Wunderground v.1.15,2013-02-22 15:30:00,
2013-02-22 10:35:00,28.3,21.4,30.31,ESE,103,5.0,12.0,75,0.00,,,0.00,Wunderground v.1.15,2013-02-22 15:35:00,
2013-02-22 10:40:00,28.3,21.4,30.31,ENE,78,2.0,7.0,75,0.00,,,0.00,Wunderground v.1.15,2013-02-22 15:40:00,
2013-02-22 10:45:00,28.3,21.1,30.31,East,81,5.0,16.0,74,0.00,,,0.00,Wunderground v.1.15,2013-02-22 15:45:00,
2013-02-22 10:50:00,28.3,21.4,30.32,SE,144,1.0,4.0,75,0.00,,,0.00,Wunderground v.1.15,2013-02-22 15:50:00,
2013-02-22 10:55:00,28.3,21.4,30.33,SE,144,5.0,7.0,75,0.00,,,0.00,Wunderground v.1.15,2013-02-22 15:55:00,
2013-02-22 11:00:00,28.3,21.4,30.33,SE,144,2.0,3.0,75,0.00,,,0.00,Wunderground v.1.15,2013-02-22 16:00:00,
2013-02-22 11:05:00,28.3,21.4,30.33,SE,144,0.0,7.0,75,0.00,,,0.00,Wunderground v.1.15,2013-02-22 16:05:00,
2013-02-22 11:10:00,28.3,21.4,30.33,SE,144,7.0,7.0,75,0.00,,,0.00,Wunderground v.1.15,2013-02-22 16:10:00,
2013-02-22 11:15:00,28.4,21.5,30.33,SE,145,6.0,9.0,75,0.00,,,0.00,Wunderground v.1.15,2013-02-22 16:15:00,
2013-02-22 11:21:00,28.5,21.6,30.34,SE,145,0.0,3.0,75,0.00,,,0.00,Wunderground v.1.15,2013-02-22 16:21:00,
2013-02-22 11:25:00,28.7,22.1,30.34,SE,144,0.0,6.0,76,0.00,,,0.00,Wunderground v.1.15,2013-02-22 16:25:00,
2013-02-22 11:31:00,29.0,22.4,30.33,SE,144,2.0,3.0,76,0.00,,,0.00,Wunderground v.1.15,2013-02-22 16:31:00,
2013-02-22 11:35:00,29.2,22.3,30.34,SE,144,4.0,6.0,75,0.00,,,0.00,Wunderground v.1.15,2013-02-22 16:35:00,
2013-02-22 11:40:00,29.4,22.5,30.34,SE,144,1.0,2.0,75,0.00,,,0.00,Wunderground v.1.15,2013-02-22 16:40:00,
2013-02-22 11:46:00,29.6,22.6,30.33,SE,144,0.0,4.0,75,0.00,,,0.00,Wunderground v.1.15,2013-02-22 16:46:00,
2013-02-22 11:51:00,29.8,22.8,30.33,SE,144,0.0,3.0,75,0.00,,,0.00,Wunderground v.1.15,2013-02-22 16:51:00,
2013-02-22 11:56:00,30.0,23.0,30.34,SE,144,3.0,4.0,75,0.00,,,0.00,Wunderground v.1.15,2013-02-22 16:56:00,
2013-02-22 12:01:00,30.1,23.1,30.33,SE,138,0.0,3.0,75,0.00,,,0.00,Wunderground v.1.15,2013-02-22 17:01:00,
2013-02-22 12:06:00,30.3,23.6,30.33,SE,138,2.0,5.0,76,0.00,,,0.00,Wunderground v.1.15,2013-02-22 17:06:00,
2013-02-22 12:11:00,30.5,23.5,30.33,SE,138,4.0,6.0,75,0.00,,,0.00,Wunderground v.1.15,2013-02-22 17:11:00,
2013-02-22 12:16:00,30.5,23.5,30.33,SE,138,5.0,6.0,75,0.00,,,0.00,Wunderground v.1.15,2013-02-22 17:16:00,
2013-02-22 12:21:00,30.4,23.4,30.33,SE,139,5.0,8.0,75,0.00,,,0.00,Wunderground v.1.15,2013-02-22 17:21:00,
2013-02-22 12:26:00,30.2,23.9,30.32,SE,142,5.0,8.0,77,0.00,,,0.00,Wunderground v.1.15,2013-02-22 17:26:00,
2013-02-22 12:31:00,30.1,24.1,30.32,SE,142,4.0,5.0,78,0.00,,,0.00,Wunderground v.1.15,2013-02-22 17:31:00,
2013-02-22 12:36:00,30.1,24.4,30.32,SE,142,2.0,6.0,79,0.00,,,0.00,Wunderground v.1.15,2013-02-22 17:36:00,
2013-02-22 12:41:00,29.9,24.5,30.32,SE,142,6.0,6.0,80,0.00,,,0.00,Wunderground v.1.15,2013-02-22 17:41:00,
2013-02-22 12:46:00,29.7,24.3,30.31,SE,144,5.0,9.0,80,0.00,,,0.00,Wunderground v.1.15,2013-02-22 17:46:00,
2013-02-22 12:51:00,29.5,24.4,30.31,SE,144,1.0,4.0,81,0.00,,,0.00,Wunderground v.1.15,2013-02-22 17:51:00,
2013-02-22 12:56:00,29.6,25.1,30.31,SE,144,0.0,4.0,83,0.00,,,0.00,Wunderground v.1.15,2013-02-22 17:56:00,
2013-02-22 13:01:00,29.6,25.1,30.30,SE,144,2.0,5.0,83,0.00,,,0.00,Wunderground v.1.15,2013-02-22 18:01:00,
2013-02-22 13:06:00,29.6,25.1,30.30,SE,144,3.0,5.0,83,0.00,,,0.00,Wunderground v.1.15,2013-02-22 18:06:00,
2013-02-22 13:11:00,29.5,25.3,30.30,SE,144,2.0,5.0,84,0.00,,,0.01,Wunderground v.1.15,2013-02-22 18:11:00,
2013-02-22 13:16:00,29.5,25.3,30.30,SE,144,2.0,7.0,84,0.00,,,0.01,Wunderground v.1.15,2013-02-22 18:16:00,
2013-02-22 13:21:00,29.6,25.6,30.30,SE,144,2.0,4.0,85,0.00,,,0.01,Wunderground v.1.15,2013-02-22 18:21:00,
2013-02-22 13:26:00,29.6,25.6,30.30,SE,144,3.0,6.0,85,0.00,,,0.01,Wunderground v.1.15,2013-02-22 18:26:00,
2013-02-22 13:31:00,29.6,25.9,30.30,SE,144,1.0,4.0,86,0.00,,,0.01,Wunderground v.1.15,2013-02-22 18:31:00,
2013-02-22 13:36:00,29.4,25.4,30.30,SE,144,5.0,6.0,85,0.00,,,0.01,Wunderground v.1.15,2013-02-22 18:36:00,
2013-02-22 13:41:00,29.2,25.3,30.30,SE,144,0.0,3.0,85,0.00,,,0.01,Wunderground v.1.15,2013-02-22 18:41:00,
2013-02-22 13:46:00,29.2,25.5,30.29,SE,144,0.0,3.0,86,0.00,,,0.01,Wunderground v.1.15,2013-02-22 18:46:00,
2013-02-22 13:51:00,29.1,25.4,30.30,SE,144,4.0,6.0,86,0.00,,,0.01,Wunderground v.1.15,2013-02-22 18:51:00,
2013-02-22 13:56:00,29.1,25.4,30.29,SE,144,5.0,6.0,86,0.00,,,0.01,Wunderground v.1.15,2013-02-22 18:56:00,
2013-02-22 14:01:00,29.0,25.3,30.29,SE,144,2.0,6.0,86,0.00,,,0.01,Wunderground v.1.15,2013-02-22 19:01:00,
2013-02-22 14:06:00,29.0,25.6,30.29,SE,144,1.0,7.0,87,0.00,,,0.01,Wunderground v.1.15,2013-02-22 19:06:00,
2013-02-22 14:11:00,29.1,25.7,30.29,SE,144,1.0,4.0,87,0.00,,,0.01,Wunderground v.1.15,2013-02-22 19:11:00,
2013-02-22 14:16:00,29.1,26.0,30.28,SE,144,0.0,5.0,88,0.00,,,0.01,Wunderground v.1.15,2013-02-22 19:16:00,
2013-02-22 14:21:00,29.1,26.0,30.28,SE,144,2.0,2.0,88,0.00,,,0.01,Wunderground v.1.15,2013-02-22 19:21:00,
2013-02-22 14:26:00,29.0,25.9,30.28,SE,144,2.0,4.0,88,0.00,,,0.01,Wunderground v.1.15,2013-02-22 19:26:00,
2013-02-22 14:31:00,28.9,25.8,30.28,SE,144,3.0,7.0,88,0.00,,,0.01,Wunderground v.1.15,2013-02-22 19:31:00,
2013-02-22 14:36:00,28.9,26.1,30.28,SE,144,2.0,7.0,89,0.00,,,0.01,Wunderground v.1.15,2013-02-22 19:36:00,
2013-02-22 14:41:00,28.9,26.1,30.28,SE,144,3.0,4.0,89,0.00,,,0.01,Wunderground v.1.15,2013-02-22 19:41:00,
2013-02-22 14:46:00,28.9,26.3,30.28,SE,144,3.0,5.0,90,0.00,,,0.01,Wunderground v.1.15,2013-02-22 19:46:00,
2013-02-22 14:51:00,29.0,26.4,30.28,SE,144,2.0,3.0,90,0.00,,,0.01,Wunderground v.1.15,2013-02-22 19:51:00,
2013-02-22 14:56:00,28.9,26.3,30.28,SE,144,3.0,6.0,90,0.00,,,0.01,Wunderground v.1.15,2013-02-22 19:56:00,
2013-02-22 15:01:00,28.9,26.3,30.28,SE,144,0.0,2.0,90,0.00,,,0.01,Wunderground v.1.15,2013-02-22 20:01:00,
2013-02-22 15:06:00,28.9,26.3,30.27,SE,144,1.0,4.0,90,0.00,,,0.01,Wunderground v.1.15,2013-02-22 20:06:00,
2013-02-22 15:11:00,28.9,26.3,30.28,SE,144,0.0,4.0,90,0.00,,,0.01,Wunderground v.1.15,2013-02-22 20:11:00,
2013-02-22 15:16:00,29.0,26.4,30.28,SE,144,1.0,5.0,90,0.00,,,0.01,Wunderground v.1.15,2013-02-22 20:16:00,
2013-02-22 15:21:00,29.0,26.4,30.28,SE,144,1.0,2.0,90,0.00,,,0.01,Wunderground v.1.15,2013-02-22 20:21:00,
2013-02-22 15:26:00,29.1,26.5,30.28,SE,140,4.0,10.0,90,0.00,,,0.01,Wunderground v.1.15,2013-02-22 20:26:00,
2013-02-22 15:31:00,29.1,26.5,30.28,SE,140,2.0,5.0,90,0.00,,,0.01,Wunderground v.1.15,2013-02-22 20:31:00,
2013-02-22 15:36:00,29.2,26.6,30.27,SE,140,5.0,6.0,90,0.00,,,0.01,Wunderground v.1.15,2013-02-22 20:36:00,
2013-02-22 15:41:00,29.2,26.6,30.27,SE,140,3.0,5.0,90,0.00,,,0.01,Wunderground v.1.15,2013-02-22 20:41:00,
2013-02-22 15:46:00,29.2,26.6,30.27,SE,139,1.0,10.0,90,0.00,,,0.01,Wunderground v.1.15,2013-02-22 20:46:00,
2013-02-22 15:51:00,29.3,26.5,30.27,SE,137,2.0,4.0,89,0.00,,,0.01,Wunderground v.1.15,2013-02-22 20:51:00,
2013-02-22 15:56:00,29.3,26.7,30.27,SE,137,4.0,8.0,90,0.00,,,0.01,Wunderground v.1.15,2013-02-22 20:56:00,
2013-02-22 16:01:00,29.3,26.7,30.27,SE,137,3.0,4.0,90,0.00,,,0.01,Wunderground v.1.15,2013-02-22 21:01:00,
2013-02-22 16:06:00,29.3,26.7,30.27,SE,134,5.0,7.0,90,0.00,,,0.01,Wunderground v.1.15,2013-02-22 21:06:00,
2013-02-22 16:11:00,29.3,26.7,30.27,SE,132,8.0,8.0,90,0.00,,,0.01,Wunderground v.1.15,2013-02-22 21:11:00,
2013-02-22 16:16:00,29.4,26.8,30.26,ESE,115,2.0,10.0,90,0.00,,,0.01,Wunderground v.1.15,2013-02-22 21:16:00,
2013-02-22 16:21:00,29.4,26.8,30.27,ESE,115,4.0,9.0,90,0.00,,,0.01,Wunderground v.1.15,2013-02-22 21:21:00,
2013-02-22 16:26:00,29.4,26.8,30.26,ESE,115,4.0,9.0,90,0.00,,,0.01,Wunderground v.1.15,2013-02-22 21:26:00,
2013-02-22 16:31:00,29.4,26.8,30.26,ESE,116,3.0,7.0,90,0.00,,,0.01,Wunderground v.1.15,2013-02-22 21:31:00,
2013-02-22 16:36:00,29.4,26.8,30.26,ESE,113,3.0,9.0,90,0.00,,,0.01,Wunderground v.1.15,2013-02-22 21:36:00,
2013-02-22 16:41:00,29.4,26.8,30.26,ESE,117,8.0,8.0,90,0.00,,,0.01,Wunderground v.1.15,2013-02-22 21:41:00,
2013-02-22 16:46:00,29.4,26.8,30.25,ESE,115,5.0,8.0,90,0.00,,,0.01,Wunderground v.1.15,2013-02-22 21:46:00,
2013-02-22 16:51:00,29.4,26.8,30.26,ESE,117,4.0,12.0,90,0.00,,,0.01,Wunderground v.1.15,2013-02-22 21:51:00,
2013-02-22 16:56:00,29.5,26.9,30.25,ESE,116,0.0,12.0,90,0.00,,,0.01,Wunderground v.1.15,2013-02-22 21:56:00,
2013-02-22 17:01:00,29.5,26.9,30.25,ESE,116,2.0,4.0,90,0.00,,,0.01,Wunderground v.1.15,2013-02-22 22:01:00,
2013-02-22 17:06:00,29.5,26.9,30.25,ESE,116,2.0,7.0,90,0.00,,,0.01,Wunderground v.1.15,2013-02-22 22:06:00,
2013-02-22 17:11:00,29.5,26.9,30.25,ESE,113,0.0,7.0,90,0.00,,,0.01,Wunderground v.1.15,2013-02-22 22:11:00,
2013-02-22 17:16:00,29.5,26.9,30.26,ESE,111,2.0,7.0,90,0.00,,,0.01,Wunderground v.1.15,2013-02-22 22:16:00,
2013-02-22 17:21:00,29.4,27.1,30.26,ESE,115,3.0,5.0,91,0.00,,,0.01,Wunderground v.1.15,2013-02-22 22:21:00,
2013-02-22 17:26:00,29.4,26.8,30.26,East,82,3.0,12.0,90,0.00,,,0.01,Wunderground v.1.15,2013-02-22 22:26:00,
2013-02-22 17:31:00,29.3,27.0,30.26,East,86,2.0,5.0,91,0.00,,,0.01,Wunderground v.1.15,2013-02-22 22:31:00,
2013-02-22 17:36:00,29.3,27.0,30.26,East,86,1.0,6.0,91,0.00,,,0.01,Wunderground v.1.15,2013-02-22 22:36:00,
2013-02-22 17:41:00,29.3,26.7,30.26,ESE,121,5.0,5.0,90,0.00,,,0.01,Wunderground v.1.15,2013-02-22 22:41:00,
2013-02-22 17:46:00,29.4,26.8,30.26,ESE,113,1.0,8.0,90,0.00,,,0.01,Wunderground v.1.15,2013-02-22 22:46:00,
2013-02-22 17:51:00,29.4,26.8,30.26,ESE,113,3.0,6.0,90,0.00,,,0.01,Wunderground v.1.15,2013-02-22 22:51:00,
2013-02-22 17:56:00,29.4,26.8,30.26,ESE,113,3.0,7.0,90,0.00,,,0.01,Wunderground v.1.15,2013-02-22 22:56:00,
2013-02-22 18:01:00,29.4,26.8,30.26,ESE,113,0.0,6.0,90,0.00,,,0.01,Wunderground v.1.15,2013-02-22 23:01:00,
2013-02-22 18:06:00,29.4,26.8,30.26,ESE,113,1.0,6.0,90,0.00,,,0.01,Wunderground v.1.15,2013-02-22 23:06:00,
2013-02-22 18:11:00,29.5,26.9,30.26,ESE,113,5.0,7.0,90,0.00,,,0.01,Wunderground v.1.15,2013-02-22 23:11:00,
2013-02-22 18:16:00,29.4,26.8,30.26,ESE,116,2.0,11.0,90,0.00,,,0.01,Wunderground v.1.15,2013-02-22 23:16:00,
2013-02-22 18:21:00,29.5,26.9,30.26,ESE,111,7.0,10.0,90,0.00,,,0.01,Wunderground v.1.15,2013-02-22 23:21:00,
2013-02-22 18:26:00,29.5,26.9,30.26,ESE,111,2.0,10.0,90,0.00,,,0.01,Wunderground v.1.15,2013-02-22 23:26:00,
2013-02-22 18:31:00,29.4,26.8,30.26,East,99,4.0,9.0,90,0.00,,,0.01,Wunderground v.1.15,2013-02-22 23:31:00,
2013-02-22 18:36:00,29.4,26.8,30.26,East,94,6.0,11.0,90,0.00,,,0.01,Wunderground v.1.15,2013-02-22 23:36:00,
2013-02-22 18:41:00,29.5,26.9,30.25,ESE,103,6.0,9.0,90,0.00,,,0.01,Wunderground v.1.15,2013-02-22 23:41:00,
2013-02-22 18:46:00,29.5,26.9,30.25,ESE,103,5.0,9.0,90,0.00,,,0.01,Wunderground v.1.15,2013-02-22 23:46:00,
2013-02-22 18:51:00,29.5,26.9,30.26,ESE,103,3.0,7.0,90,0.00,,,0.01,Wunderground v.1.15,2013-02-22 23:51:00,
2013-02-22 18:56:00,29.5,26.9,30.25,East,97,1.0,9.0,90,0.00,,,0.01,Wunderground v.1.15,2013-02-22 23:56:00,
2013-02-22 19:01:00,29.5,26.9,30.25,East,99,3.0,10.0,90,0.00,,,0.01,Wunderground v.1.15,2013-02-23 00:01:00,
2013-02-22 19:06:00,29.5,26.9,30.25,ESE,103,3.0,10.0,90,0.00,,,0.01,Wunderground v.1.15,2013-02-23 00:06:00,
2013-02-22 19:11:00,29.5,26.9,30.24,ESE,105,3.0,6.0,90,0.00,,,0.01,Wunderground v.1.15,2013-02-23 00:11:00,
2013-02-22 19:16:00,29.5,26.9,30.25,SE,144,3.0,9.0,90,0.00,,,0.01,Wunderground v.1.15,2013-02-23 00:16:00,
2013-02-22 19:21:00,29.4,26.8,30.25,ESE,122,6.0,10.0,90,0.00,,,0.01,Wunderground v.1.15,2013-02-23 00:21:00,
2013-02-22 19:26:00,29.4,26.8,30.25,SE,128,3.0,10.0,90,0.00,,,0.01,Wunderground v.1.15,2013-02-23 00:26:00,
2013-02-22 19:31:00,29.4,26.8,30.24,SE,127,5.0,11.0,90,0.00,,,0.01,Wunderground v.1.15,2013-02-23 00:31:00,
2013-02-22 19:36:00,29.4,26.8,30.25,ESE,103,3.0,11.0,90,0.00,,,0.01,Wunderground v.1.15,2013-02-23 00:36:00,
2013-02-22 19:41:00,29.4,26.8,30.25,East,101,0.0,4.0,90,0.00,,,0.01,Wunderground v.1.15,2013-02-23 00:41:00,
2013-02-22 19:46:00,29.4,26.8,30.25,ESE,102,3.0,6.0,90,0.00,,,0.01,Wunderground v.1.15,2013-02-23 00:46:00,
2013-02-22 19:51:00,29.4,26.8,30.25,East,96,3.0,5.0,90,0.00,,,0.01,Wunderground v.1.15,2013-02-23 00:51:00,
2013-02-22 19:56:00,29.4,26.8,30.24,East,94,4.0,7.0,90,0.00,,,0.01,Wunderground v.1.15,2013-02-23 00:56:00,
2013-02-22 20:01:00,29.4,26.8,30.24,East,92,5.0,7.0,90,0.00,,,0.01,Wunderground v.1.15,2013-02-23 01:01:00,
2013-02-22 20:06:00,29.4,26.8,30.25,East,88,4.0,9.0,90,0.00,,,0.01,Wunderground v.1.15,2013-02-23 01:06:00,
2013-02-22 20:11:00,29.4,27.1,30.25,East,88,5.0,5.0,91,0.00,,,0.01,Wunderground v.1.15,2013-02-23 01:11:00,
2013-02-22 20:16:00,29.4,27.1,30.24,East,86,6.0,9.0,91,0.00,,,0.01,Wunderground v.1.15,2013-02-23 01:16:00,
2013-02-22 20:21:00,29.4,27.1,30.24,East,85,5.0,7.0,91,0.00,,,0.01,Wunderground v.1.15,2013-02-23 01:21:00,
2013-02-22 20:26:00,29.4,26.8,30.24,East,84,3.0,7.0,90,0.00,,,0.01,Wunderground v.1.15,2013-02-23 01:26:00,
2013-02-22 20:31:00,29.4,27.1,30.24,East,96,4.0,5.0,91,0.00,,,0.01,Wunderground v.1.15,2013-02-23 01:31:00,
2013-02-22 20:36:00,29.4,26.8,30.24,ENE,78,4.0,12.0,90,0.00,,,0.01,Wunderground v.1.15,2013-02-23 01:36:00,
2013-02-22 20:41:00,29.4,27.1,30.24,East,79,5.0,5.0,91,0.00,,,0.01,Wunderground v.1.15,2013-02-23 01:41:00,
2013-02-22 20:47:00,29.4,27.1,30.24,East,92,2.0,9.0,91,0.00,,,0.01,Wunderground v.1.15,2013-02-23 01:47:00,
2013-02-22 20:52:00,29.4,27.1,30.24,East,89,3.0,6.0,91,0.00,,,0.01,Wunderground v.1.15,2013-02-23 01:52:00,
2013-02-22 20:57:00,29.4,27.1,30.24,East,94,3.0,8.0,91,0.00,,,0.01,Wunderground v.1.15,2013-02-23 01:57:00,
2013-02-22 21:02:00,29.4,27.1,30.24,East,88,8.0,8.0,91,0.00,,,0.01,Wunderground v.1.15,2013-02-23 02:02:00,
2013-02-22 21:07:00,29.4,27.1,30.24,East,83,4.0,10.0,91,0.00,,,0.01,Wunderground v.1.15,2013-02-23 02:07:00,
2013-02-22 21:12:00,29.4,27.1,30.24,East,82,4.0,6.0,91,0.00,,,0.01,Wunderground v.1.15,2013-02-23 02:12:00,
2013-02-22 21:17:00,29.4,27.1,30.23,East,82,4.0,9.0,91,0.00,,,0.01,Wunderground v.1.15,2013-02-23 02:17:00,
2013-02-22 21:22:00,29.4,27.1,30.24,East,80,7.0,7.0,91,0.00,,,0.01,Wunderground v.1.15,2013-02-23 02:22:00,
2013-02-22 21:27:00,29.4,27.1,30.24,East,80,2.0,10.0,91,0.00,,,0.01,Wunderground v.1.15,2013-02-23 02:27:00,
2013-02-22 21:32:00,29.4,27.1,30.24,East,90,3.0,8.0,91,0.00,,,0.01,Wunderground v.1.15,2013-02-23 02:32:00,
2013-02-22 21:37:00,29.5,27.2,30.24,East,81,3.0,12.0,91,0.00,,,0.01,Wunderground v.1.15,2013-02-23 02:37:00,
2013-02-22 21:42:00,29.4,27.1,30.24,East,82,5.0,6.0,91,0.00,,,0.01,Wunderground v.1.15,2013-02-23 02:42:00,
2013-02-22 21:47:00,29.4,27.1,30.23,East,82,4.0,7.0,91,0.00,,,0.01,Wunderground v.1.15,2013-02-23 02:47:00,
2013-02-22 21:52:00,29.5,27.2,30.23,East,80,2.0,10.0,91,0.00,,,0.01,Wunderground v.1.15,2013-02-23 02:52:00,
2013-02-22 21:57:00,29.4,27.1,30.23,East,79,1.0,10.0,91,0.00,,,0.01,Wunderground v.1.15,2013-02-23 02:57:00,
2013-02-22 22:02:00,29.5,27.2,30.23,East,79,3.0,7.0,91,0.00,,,0.01,Wunderground v.1.15,2013-02-23 03:02:00,
2013-02-22 22:07:00,29.5,27.2,30.22,East,86,5.0,9.0,91,0.00,,,0.01,Wunderground v.1.15,2013-02-23 03:07:00,
2013-02-22 22:12:00,29.5,27.2,30.22,East,90,4.0,6.0,91,0.00,,,0.01,Wunderground v.1.15,2013-02-23 03:12:00,
2013-02-22 22:17:00,29.6,27.3,30.22,ESE,105,4.0,10.0,91,0.00,,,0.01,Wunderground v.1.15,2013-02-23 03:17:00,
2013-02-22 22:22:00,29.6,27.3,30.23,ESE,105,4.0,5.0,91,0.00,,,0.01,Wunderground v.1.15,2013-02-23 03:22:00,
2013-02-22 22:27:00,29.6,27.3,30.23,East,98,6.0,10.0,91,0.00,,,0.01,Wunderground v.1.15,2013-02-23 03:27:00,
2013-02-22 22:32:00,29.7,27.4,30.23,East,89,3.0,10.0,91,0.00,,,0.01,Wunderground v.1.15,2013-02-23 03:32:00,
2013-02-22 22:37:00,29.7,27.4,30.22,East,84,9.0,10.0,91,0.00,,,0.01,Wunderground v.1.15,2013-02-23 03:37:00,
2013-02-22 22:42:00,29.7,27.4,30.23,East,84,2.0,6.0,91,0.00,,,0.01,Wunderground v.1.15,2013-02-23 03:42:00,
2013-02-22 22:47:00,29.8,27.5,30.23,East,93,2.0,10.0,91,0.00,,,0.01,Wunderground v.1.15,2013-02-23 03:47:00,
2013-02-22 22:52:00,29.8,27.5,30.23,East,100,4.0,7.0,91,0.00,,,0.01,Wunderground v.1.15,2013-02-23 03:52:00,
2013-02-22 22:57:00,29.9,27.6,30.22,East,98,1.0,9.0,91,0.00,,,0.01,Wunderground v.1.15,2013-02-23 03:57:00,
2013-02-22 23:02:00,29.9,27.6,30.23,East,98,3.0,7.0,91,0.00,,,0.01,Wunderground v.1.15,2013-02-23 04:02:00,
2013-02-22 23:07:00,30.0,27.7,30.23,East,98,2.0,7.0,91,0.00,,,0.01,Wunderground v.1.15,2013-02-23 04:07:00,
2013-02-22 23:12:00,30.1,27.8,30.23,East,99,5.0,6.0,91,0.00,,,0.01,Wunderground v.1.15,2013-02-23 04:12:00,
2013-02-22 23:17:00,30.1,27.8,30.23,East,95,1.0,9.0,91,0.00,,,0.01,Wunderground v.1.15,2013-02-23 04:17:00,
2013-02-22 23:22:00,30.2,27.9,30.22,East,95,1.0,3.0,91,0.00,,,0.01,Wunderground v.1.15,2013-02-23 04:22:00,
2013-02-22 23:27:00,30.2,27.9,30.22,East,94,1.0,6.0,91,0.00,,,0.01,Wunderground v.1.15,2013-02-23 04:27:00,
2013-02-22 23:32:00,30.2,27.9,30.22,East,94,3.0,3.0,91,0.00,,,0.01,Wunderground v.1.15,2013-02-23 04:32:00,
2013-02-22 23:37:00,30.3,28.0,30.22,East,95,0.0,9.0,91,0.00,,,0.01,Wunderground v.1.15,2013-02-23 04:37:00,
2013-02-22 23:42:00,30.3,28.0,30.22,East,96,4.0,5.0,91,0.00,,,0.01,Wunderground v.1.15,2013-02-23 04:42:00,
2013-02-22 23:47:00,30.3,28.0,30.22,East,95,6.0,6.0,91,0.00,,,0.01,Wunderground v.1.15,2013-02-23 04:47:00,
2013-02-22 23:52:00,30.4,28.1,30.21,East,98,3.0,9.0,91,0.00,,,0.01,Wunderground v.1.15,2013-02-23 04:52:00,
2013-02-22 23:57:00,30.5,28.2,30.21,East,98,4.0,9.0,91,0.00,,,0.01,Wunderground v.1.15,2013-02-23 04:57:00,